sensor_id;sensor_type;location;lat;lon;timestamp;pressure;altitude;pressure_sealevel;temperature;humidity
74708;BME280;63360;50.104;8.074;2022-12-10T00:01:34;96126.09;;;-1.59;100.00
74708;BME280;63360;50.104;8.074;2022-12-10T00:04:00;96130.44;;;-1.59;100.00
74708;BME280;63360;50.104;8.074;2022-12-10T00:06:29;96139.88;;;-1.55;100.00
74708;BME280;63360;50.104;8.074;2022-12-10T00:08:56;96133.75;;;-1.59;100.00
74708;BME280;63360;50.104;8.074;2022-12-10T00:11:23;96147.25;;;-1.58;100.00
74708;BME280;63360;50.104;8.074;2022-12-10T00:13:50;96153.13;;;-1.58;100.00
74708;BME280;63360;50.104;8.074;2022-12-10T00:16:20;96146.97;;;-1.67;100.00
74708;BME280;63360;50.104;8.074;2022-12-10T00:18:48;96163.81;;;-1.66;100.00
74708;BME280;63360;50.104;8.074;2022-12-10T00:21:18;96136.50;;;-1.80;100.00
74708;BME280;63360;50.104;8.074;2022-12-10T00:23:45;96143.91;;;-1.74;100.00
74708;BME280;63360;50.104;8.074;2022-12-10T00:26:15;96149.31;;;-1.65;100.00
74708;BME280;63360;50.104;8.074;2022-12-10T00:28:42;96148.25;;;-1.64;100.00
74708;BME280;63360;50.104;8.074;2022-12-10T00:31:11;96148.25;;;-1.64;100.00
74708;BME280;63360;50.104;8.074;2022-12-10T00:33:39;96138.06;;;-1.69;100.00
74708;BME280;63360;50.104;8.074;2022-12-10T00:36:11;96143.94;;;-1.64;100.00
74708;BME280;63360;50.104;8.074;2022-12-10T00:38:38;96147.78;;;-1.56;100.00
74708;BME280;63360;50.104;8.074;2022-12-10T00:41:05;96146.47;;;-1.69;100.00
74708;BME280;63360;50.104;8.074;2022-12-10T00:43:32;96141.66;;;-1.65;100.00
74708;BME280;63360;50.104;8.074;2022-12-10T00:45:59;96141.38;;;-1.64;100.00
74708;BME280;63360;50.104;8.074;2022-12-10T00:48:25;96144.47;;;-1.52;100.00
74708;BME280;63360;50.104;8.074;2022-12-10T00:51:00;96135.28;;;-1.63;100.00
74708;BME280;63360;50.104;8.074;2022-12-10T00:53:28;96131.19;;;-1.64;100.00
74708;BME280;63360;50.104;8.074;2022-12-10T00:55:55;96135.03;;;-1.61;100.00
74708;BME280;63360;50.104;8.074;2022-12-10T00:58:23;96134.75;;;-1.70;100.00
74708;BME280;63360;50.104;8.074;2022-12-10T01:00:49;96142.44;;;-1.55;100.00
74708;BME280;63360;50.104;8.074;2022-12-10T01:03:16;96132.97;;;-1.69;100.00
74708;BME280;63360;50.104;8.074;2022-12-10T01:05:42;96137.53;;;-1.76;100.00
74708;BME280;63360;50.104;8.074;2022-12-10T01:08:09;96149.31;;;-1.65;100.00
74708;BME280;63360;50.104;8.074;2022-12-10T01:10:35;96153.38;;;-1.59;100.00
74708;BME280;63360;50.104;8.074;2022-12-10T01:13:02;96142.38;;;-1.70;100.00
74708;BME280;63360;50.104;8.074;2022-12-10T01:15:29;96160.47;;;-1.76;100.00
74708;BME280;63360;50.104;8.074;2022-12-10T01:17:55;96160.50;;;-1.71;100.00
74708;BME280;63360;50.104;8.074;2022-12-10T01:20:22;96158.72;;;-1.66;100.00
74708;BME280;63360;50.104;8.074;2022-12-10T01:22:48;96154.63;;;-1.72;100.00
74708;BME280;63360;50.104;8.074;2022-12-10T01:25:15;96171.19;;;-1.69;100.00
74708;BME280;63360;50.104;8.074;2022-12-10T01:27:41;96168.38;;;-1.78;100.00
74708;BME280;63360;50.104;8.074;2022-12-10T01:30:08;96171.94;;;-1.79;100.00
74708;BME280;63360;50.104;8.074;2022-12-10T01:32:35;96171.69;;;-1.72;100.00
74708;BME280;63360;50.104;8.074;2022-12-10T01:35:02;96174.53;;;-1.69;100.00
74708;BME280;63360;50.104;8.074;2022-12-10T01:37:28;96176.56;;;-1.76;100.00
74708;BME280;63360;50.104;8.074;2022-12-10T01:39:55;96185.72;;;-1.70;100.00
74708;BME280;63360;50.104;8.074;2022-12-10T01:42:21;96176.75;;;-1.88;100.00
74708;BME280;63360;50.104;8.074;2022-12-10T01:47:14;96191.78;;;-1.86;100.00
74708;BME280;63360;50.104;8.074;2022-12-10T01:49:40;96198.69;;;-1.87;100.00
74708;BME280;63360;50.104;8.074;2022-12-10T01:52:10;96201.50;;;-1.78;100.00
74708;BME280;63360;50.104;8.074;2022-12-10T01:54:40;96204.06;;;-1.78;100.00
74708;BME280;63360;50.104;8.074;2022-12-10T01:57:17;96196.94;;;-1.71;100.00
74708;BME280;63360;50.104;8.074;2022-12-10T01:59:48;96201.50;;;-1.73;100.00
74708;BME280;63360;50.104;8.074;2022-12-10T02:02:34;96202.03;;;-1.76;100.00
74708;BME280;63360;50.104;8.074;2022-12-10T02:05:15;96200.66;;;-2.04;100.00
74708;BME280;63360;50.104;8.074;2022-12-10T02:08:03;96206.56;;;-1.93;100.00
74708;BME280;63360;50.104;8.074;2022-12-10T02:13:29;96208.25;;;-2.09;100.00
74708;BME280;63360;50.104;8.074;2022-12-10T02:16:03;96196.56;;;-2.05;100.00
74708;BME280;63360;50.104;8.074;2022-12-10T02:21:09;96205.53;;;-1.97;100.00
74708;BME280;63360;50.104;8.074;2022-12-10T02:23:41;96201.44;;;-1.98;100.00
74708;BME280;63360;50.104;8.074;2022-12-10T02:29:19;96190.44;;;-2.04;100.00
74708;BME280;63360;50.104;8.074;2022-12-10T02:31:54;96198.88;;;-1.98;100.00
74708;BME280;63360;50.104;8.074;2022-12-10T02:34:23;96194.59;;;-1.88;100.00
74708;BME280;63360;50.104;8.074;2022-12-10T02:36:53;96176.22;;;-2.00;100.00
74708;BME280;63360;50.104;8.074;2022-12-10T02:39:25;96171.66;;;-1.83;100.00
74708;BME280;63360;50.104;8.074;2022-12-10T02:41:54;96181.88;;;-1.77;100.00
74708;BME280;63360;50.104;8.074;2022-12-10T02:44:23;96179.31;;;-1.83;100.00
74708;BME280;63360;50.104;8.074;2022-12-10T02:46:52;96182.38;;;-1.86;100.00
74708;BME280;63360;50.104;8.074;2022-12-10T02:49:20;96171.38;;;-1.91;100.00
74708;BME280;63360;50.104;8.074;2022-12-10T02:51:47;96185.16;;;-1.87;100.00
74708;BME280;63360;50.104;8.074;2022-12-10T02:57:15;96188.75;;;-1.78;100.00
74708;BME280;63360;50.104;8.074;2022-12-10T03:05:58;96192.06;;;-1.83;100.00
74708;BME280;63360;50.104;8.074;2022-12-10T03:08:34;96182.84;;;-1.89;100.00
74708;BME280;63360;50.104;8.074;2022-12-10T03:11:10;96179.31;;;-1.88;100.00
74708;BME280;63360;50.104;8.074;2022-12-10T03:13:59;96184.19;;;-1.81;100.00
74708;BME280;63360;50.104;8.074;2022-12-10T03:16:31;96185.66;;;-1.90;100.00
74708;BME280;63360;50.104;8.074;2022-12-10T03:19:04;96179.81;;;-1.86;100.00
74708;BME280;63360;50.104;8.074;2022-12-10T03:21:33;96179.03;;;-1.91;100.00
74708;BME280;63360;50.104;8.074;2022-12-10T03:24:01;96173.13;;;-2.02;100.00
74708;BME280;63360;50.104;8.074;2022-12-10T03:26:29;96180.28;;;-1.94;100.00
74708;BME280;63360;50.104;8.074;2022-12-10T03:29:05;96183.88;;;-1.95;100.00
74708;BME280;63360;50.104;8.074;2022-12-10T03:31:34;96185.09;;;-2.02;100.00
74708;BME280;63360;50.104;8.074;2022-12-10T03:34:02;96181.53;;;-2.01;100.00
74708;BME280;63360;50.104;8.074;2022-12-10T03:36:29;96174.41;;;-2.04;100.00
74708;BME280;63360;50.104;8.074;2022-12-10T03:38:56;96168.31;;;-1.98;100.00
74708;BME280;63360;50.104;8.074;2022-12-10T03:41:23;96178.22;;;-2.02;100.00
74708;BME280;63360;50.104;8.074;2022-12-10T03:46:18;96169.53;;;-2.16;100.00
74708;BME280;63360;50.104;8.074;2022-12-10T03:48:44;96171.06;;;-2.05;100.00
74708;BME280;63360;50.104;8.074;2022-12-10T03:51:11;96174.41;;;-1.99;100.00
74708;BME280;63360;50.104;8.074;2022-12-10T03:53:37;96167.81;;;-2.00;100.00
74708;BME280;63360;50.104;8.074;2022-12-10T03:56:04;96174.66;;;-2.01;100.00
74708;BME280;63360;50.104;8.074;2022-12-10T03:58:30;96187.13;;;-2.04;100.00
74708;BME280;63360;50.104;8.074;2022-12-10T04:00:56;96188.19;;;-1.95;100.00
74708;BME280;63360;50.104;8.074;2022-12-10T04:03:23;96185.88;;;-2.02;100.00
74708;BME280;63360;50.104;8.074;2022-12-10T04:05:50;96177.69;;;-2.09;100.00
74708;BME280;63360;50.104;8.074;2022-12-10T04:08:16;96177.41;;;-2.12;100.00
74708;BME280;63360;50.104;8.074;2022-12-10T04:10:43;96185.53;;;-2.15;100.00
74708;BME280;63360;50.104;8.074;2022-12-10T04:13:09;96181.00;;;-2.13;100.00
74708;BME280;63360;50.104;8.074;2022-12-10T04:15:56;96181.69;;;-2.23;100.00
74708;BME280;63360;50.104;8.074;2022-12-10T04:18:41;96177.97;;;-2.10;100.00
74708;BME280;63360;50.104;8.074;2022-12-10T04:21:08;96166.72;;;-2.09;100.00
74708;BME280;63360;50.104;8.074;2022-12-10T04:23:52;96188.09;;;-2.15;100.00
74708;BME280;63360;50.104;8.074;2022-12-10T04:26:37;96182.03;;;-2.04;100.00
74708;BME280;63360;50.104;8.074;2022-12-10T04:29:21;96183.78;;;-2.10;100.00
74708;BME280;63360;50.104;8.074;2022-12-10T04:31:48;96175.34;;;-2.15;100.00
74708;BME280;63360;50.104;8.074;2022-12-10T04:34:15;96184.06;;;-2.11;100.00
74708;BME280;63360;50.104;8.074;2022-12-10T04:36:41;96198.34;;;-2.05;100.00
74708;BME280;63360;50.104;8.074;2022-12-10T04:39:08;96185.63;;;-2.05;100.00
74708;BME280;63360;50.104;8.074;2022-12-10T04:41:34;96200.91;;;-2.05;100.00
74708;BME280;63360;50.104;8.074;2022-12-10T04:44:01;96201.41;;;-2.08;100.00
74708;BME280;63360;50.104;8.074;2022-12-10T04:46:27;96197.63;;;-1.96;100.00
74708;BME280;63360;50.104;8.074;2022-12-10T04:48:54;96200.44;;;-1.97;100.00
74708;BME280;63360;50.104;8.074;2022-12-10T04:51:20;96188.66;;;-2.08;100.00
74708;BME280;63360;50.104;8.074;2022-12-10T04:53:46;96192.50;;;-2.06;100.00
74708;BME280;63360;50.104;8.074;2022-12-10T04:56:13;96188.88;;;-2.15;100.00
74708;BME280;63360;50.104;8.074;2022-12-10T04:58:39;96187.88;;;-2.09;100.00
74708;BME280;63360;50.104;8.074;2022-12-10T05:01:08;96197.84;;;-2.02;100.00
74708;BME280;63360;50.104;8.074;2022-12-10T05:03:35;96189.66;;;-2.09;100.00
74708;BME280;63360;50.104;8.074;2022-12-10T05:06:03;96197.53;;;-2.16;100.00
74708;BME280;63360;50.104;8.074;2022-12-10T05:08:31;96197.53;;;-2.16;100.00
74708;BME280;63360;50.104;8.074;2022-12-10T05:11:05;96208.25;;;-2.14;100.00
74708;BME280;63360;50.104;8.074;2022-12-10T05:13:32;96206.19;;;-2.17;100.00
74708;BME280;63360;50.104;8.074;2022-12-10T05:16:02;96217.94;;;-2.11;100.00
74708;BME280;63360;50.104;8.074;2022-12-10T05:18:29;96210.50;;;-2.17;100.00
74708;BME280;63360;50.104;8.074;2022-12-10T05:20:58;96218.16;;;-2.17;100.00
74708;BME280;63360;50.104;8.074;2022-12-10T05:23:25;96221.47;;;-2.17;100.00
74708;BME280;63360;50.104;8.074;2022-12-10T05:26:09;96212.28;;;-2.18;100.00
74708;BME280;63360;50.104;8.074;2022-12-10T05:28:38;96225.50;;;-2.21;100.00
74708;BME280;63360;50.104;8.074;2022-12-10T05:31:10;96228.34;;;-2.17;100.00
74708;BME280;63360;50.104;8.074;2022-12-10T05:33:37;96219.19;;;-2.13;100.00
74708;BME280;63360;50.104;8.074;2022-12-10T05:36:04;96227.56;;;-2.18;100.00
74708;BME280;63360;50.104;8.074;2022-12-10T05:38:32;96216.06;;;-2.25;100.00
74708;BME280;63360;50.104;8.074;2022-12-10T05:41:08;96218.34;;;-2.29;100.00
74708;BME280;63360;50.104;8.074;2022-12-10T05:43:35;96226.81;;;-2.18;100.00
74708;BME280;63360;50.104;8.074;2022-12-10T05:46:03;96231.94;;;-2.13;100.00
74708;BME280;63360;50.104;8.074;2022-12-10T05:48:31;96235.22;;;-2.18;100.00
74708;BME280;63360;50.104;8.074;2022-12-10T05:50:58;96236.94;;;-2.28;100.00
74708;BME280;63360;50.104;8.074;2022-12-10T05:53:24;96223.66;;;-2.35;100.00
74708;BME280;63360;50.104;8.074;2022-12-10T05:55:59;96232.16;;;-2.20;100.00
74708;BME280;63360;50.104;8.074;2022-12-10T05:58:27;96236.69;;;-2.27;100.00
74708;BME280;63360;50.104;8.074;2022-12-10T06:00:55;96242.56;;;-2.26;100.00
74708;BME280;63360;50.104;8.074;2022-12-10T06:03:21;96220.81;;;-2.39;100.00
74708;BME280;63360;50.104;8.074;2022-12-10T06:05:48;96234.63;;;-2.30;100.00
74708;BME280;63360;50.104;8.074;2022-12-10T06:08:14;96234.94;;;-2.21;100.00
74708;BME280;63360;50.104;8.074;2022-12-10T06:10:41;96237.47;;;-2.26;100.00
74708;BME280;63360;50.104;8.074;2022-12-10T06:13:07;96243.06;;;-2.29;100.00
74708;BME280;63360;50.104;8.074;2022-12-10T06:15:33;96243.59;;;-2.22;100.00
74708;BME280;63360;50.104;8.074;2022-12-10T06:18:00;96242.56;;;-2.26;100.00
74708;BME280;63360;50.104;8.074;2022-12-10T06:20:27;96250.06;;;-2.05;100.00
74708;BME280;63360;50.104;8.074;2022-12-10T06:22:53;96246.44;;;-2.14;100.00
74708;BME280;63360;50.104;8.074;2022-12-10T06:25:20;96243.81;;;-2.29;100.00
74708;BME280;63360;50.104;8.074;2022-12-10T06:27:46;96255.84;;;-2.19;100.00
74708;BME280;63360;50.104;8.074;2022-12-10T06:30:13;96257.31;;;-2.28;100.00
74708;BME280;63360;50.104;8.074;2022-12-10T06:32:40;96246.59;;;-2.30;100.00
74708;BME280;63360;50.104;8.074;2022-12-10T06:35:09;96263.47;;;-2.24;100.00
74708;BME280;63360;50.104;8.074;2022-12-10T06:37:36;96263.66;;;-2.31;100.00
74708;BME280;63360;50.104;8.074;2022-12-10T06:40:03;96252.75;;;-2.26;100.00
74708;BME280;63360;50.104;8.074;2022-12-10T06:42:30;96250.94;;;-2.26;100.00
74708;BME280;63360;50.104;8.074;2022-12-10T06:44:56;96262.47;;;-2.18;100.00
74708;BME280;63360;50.104;8.074;2022-12-10T06:47:23;96268.44;;;-2.03;100.00
74708;BME280;63360;50.104;8.074;2022-12-10T06:49:49;96265.09;;;-2.08;100.00
74708;BME280;63360;50.104;8.074;2022-12-10T06:52:16;96268.91;;;-2.06;100.00
74708;BME280;63360;50.104;8.074;2022-12-10T06:54:42;96271.50;;;-2.01;100.00
74708;BME280;63360;50.104;8.074;2022-12-10T06:57:09;96270.19;;;-2.08;100.00
74708;BME280;63360;50.104;8.074;2022-12-10T06:59:35;96265.28;;;-2.15;100.00
74708;BME280;63360;50.104;8.074;2022-12-10T07:02:02;96275.00;;;-2.07;100.00
74708;BME280;63360;50.104;8.074;2022-12-10T07:04:30;96257.63;;;-2.20;100.00
74708;BME280;63360;50.104;8.074;2022-12-10T07:06:56;96281.84;;;-2.12;100.00
74708;BME280;63360;50.104;8.074;2022-12-10T07:09:22;96267.81;;;-2.20;100.00
74708;BME280;63360;50.104;8.074;2022-12-10T07:11:50;96271.16;;;-2.14;100.00
74708;BME280;63360;50.104;8.074;2022-12-10T07:14:17;96263.69;;;-2.26;100.00
74708;BME280;63360;50.104;8.074;2022-12-10T07:16:44;96284.63;;;-2.19;100.00
74708;BME280;63360;50.104;8.074;2022-12-10T07:19:11;96280.81;;;-2.21;100.00
74708;BME280;63360;50.104;8.074;2022-12-10T07:21:40;96271.13;;;-2.19;100.00
74708;BME280;63360;50.104;8.074;2022-12-10T07:24:12;96273.38;;;-2.23;100.00
74708;BME280;63360;50.104;8.074;2022-12-10T07:26:41;96286.91;;;-2.22;100.00
74708;BME280;63360;50.104;8.074;2022-12-10T07:29:14;96292.47;;;-2.25;100.00
74708;BME280;63360;50.104;8.074;2022-12-10T07:31:41;96292.75;;;-2.22;100.00
74708;BME280;63360;50.104;8.074;2022-12-10T07:34:09;96304.53;;;-2.16;100.00
74708;BME280;63360;50.104;8.074;2022-12-10T07:36:35;96305.53;;;-2.17;100.00
74708;BME280;63360;50.104;8.074;2022-12-10T07:39:05;96301.66;;;-2.24;100.00
74708;BME280;63360;50.104;8.074;2022-12-10T07:41:33;96310.44;;;-2.10;100.00
74708;BME280;63360;50.104;8.074;2022-12-10T07:43:59;96299.63;;;-2.22;100.00
74708;BME280;63360;50.104;8.074;2022-12-10T07:46:30;96317.78;;;-2.14;100.00
74708;BME280;63360;50.104;8.074;2022-12-10T07:49:00;96315.78;;;-2.07;100.00
74708;BME280;63360;50.104;8.074;2022-12-10T07:51:27;96322.13;;;-2.09;100.00
74708;BME280;63360;50.104;8.074;2022-12-10T07:53:54;96317.06;;;-2.04;100.00
74708;BME280;63360;50.104;8.074;2022-12-10T07:56:21;96324.00;;;-2.00;100.00
74708;BME280;63360;50.104;8.074;2022-12-10T07:58:48;96310.13;;;-2.14;100.00
74708;BME280;63360;50.104;8.074;2022-12-10T08:01:17;96306.31;;;-2.16;100.00
74708;BME280;63360;50.104;8.074;2022-12-10T08:03:44;96316.06;;;-2.03;100.00
74708;BME280;63360;50.104;8.074;2022-12-10T08:06:14;96324.47;;;-2.03;100.00
74708;BME280;63360;50.104;8.074;2022-12-10T08:08:41;96312.97;;;-2.10;100.00
74708;BME280;63360;50.104;8.074;2022-12-10T08:11:09;96322.75;;;-1.97;100.00
74708;BME280;63360;50.104;8.074;2022-12-10T08:13:36;96328.56;;;-1.97;100.00
74708;BME280;63360;50.104;8.074;2022-12-10T08:16:03;96334.56;;;-1.81;100.00
74708;BME280;63360;50.104;8.074;2022-12-10T08:18:31;96329.13;;;-1.95;100.00
74708;BME280;63360;50.104;8.074;2022-12-10T08:20:58;96312.22;;;-2.06;100.00
74708;BME280;63360;50.104;8.074;2022-12-10T08:23:24;96324.53;;;-1.93;100.00
74708;BME280;63360;50.104;8.074;2022-12-10T08:25:50;96326.56;;;-1.95;100.00
74708;BME280;63360;50.104;8.074;2022-12-10T08:28:17;96337.84;;;-1.80;100.00
74708;BME280;63360;50.104;8.074;2022-12-10T08:30:47;96328.41;;;-1.85;100.00
74708;BME280;63360;50.104;8.074;2022-12-10T08:33:14;96330.50;;;-1.77;100.00
74708;BME280;63360;50.104;8.074;2022-12-10T08:35:41;96324.66;;;-1.67;100.00
74708;BME280;63360;50.104;8.074;2022-12-10T08:38:07;96323.88;;;-1.73;100.00
74708;BME280;63360;50.104;8.074;2022-12-10T08:40:34;96325.09;;;-1.86;100.00
74708;BME280;63360;50.104;8.074;2022-12-10T08:43:00;96335.63;;;-1.67;100.00
74708;BME280;63360;50.104;8.074;2022-12-10T08:45:26;96321.31;;;-1.78;100.00
74708;BME280;63360;50.104;8.074;2022-12-10T08:47:53;96345.28;;;-1.74;100.00
74708;BME280;63360;50.104;8.074;2022-12-10T08:50:19;96338.69;;;-1.65;100.00
74708;BME280;63360;50.104;8.074;2022-12-10T08:52:46;96344.66;;;-1.49;100.00
74708;BME280;63360;50.104;8.074;2022-12-10T08:55:13;96343.84;;;-1.60;100.00
74708;BME280;63360;50.104;8.074;2022-12-10T08:57:40;96338.28;;;-1.52;100.00
74708;BME280;63360;50.104;8.074;2022-12-10T09:00:06;96342.31;;;-1.61;100.00
74708;BME280;63360;50.104;8.074;2022-12-10T09:02:33;96361.44;;;-1.58;100.00
74708;BME280;63360;50.104;8.074;2022-12-10T09:05:00;96358.81;;;-1.73;100.00
74708;BME280;63360;50.104;8.074;2022-12-10T09:07:27;96350.09;;;-1.77;100.00
74708;BME280;63360;50.104;8.074;2022-12-10T09:09:53;96368.31;;;-1.59;100.00
74708;BME280;63360;50.104;8.074;2022-12-10T09:12:19;96362.66;;;-1.71;100.00
74708;BME280;63360;50.104;8.074;2022-12-10T09:14:46;96367.19;;;-1.78;100.00
74708;BME280;63360;50.104;8.074;2022-12-10T09:17:12;96372.63;;;-1.59;100.00
74708;BME280;63360;50.104;8.074;2022-12-10T09:19:39;96371.13;;;-1.60;100.00
74708;BME280;63360;50.104;8.074;2022-12-10T09:22:05;96361.16;;;-1.62;100.00
74708;BME280;63360;50.104;8.074;2022-12-10T09:24:31;96377.03;;;-1.50;100.00
74708;BME280;63360;50.104;8.074;2022-12-10T09:26:59;96366.34;;;-1.47;100.00
74708;BME280;63360;50.104;8.074;2022-12-10T09:29:26;96376.03;;;-1.44;100.00
74708;BME280;63360;50.104;8.074;2022-12-10T09:31:52;96359.97;;;-1.49;100.00
74708;BME280;63360;50.104;8.074;2022-12-10T09:34:19;96377.09;;;-1.40;100.00
74708;BME280;63360;50.104;8.074;2022-12-10T09:36:45;96373.44;;;-1.54;100.00
74708;BME280;63360;50.104;8.074;2022-12-10T09:39:12;96364.78;;;-1.53;100.00
74708;BME280;63360;50.104;8.074;2022-12-10T09:47:27;96368.38;;;-1.44;100.00
74708;BME280;63360;50.104;8.074;2022-12-10T09:50:19;96373.06;;;-1.31;100.00
74708;BME280;63360;50.104;8.074;2022-12-10T09:52:48;96360.31;;;-1.31;100.00
74708;BME280;63360;50.104;8.074;2022-12-10T09:55:18;96360.06;;;-1.24;100.00
74708;BME280;63360;50.104;8.074;2022-12-10T09:57:48;96356.22;;;-1.27;100.00
74708;BME280;63360;50.104;8.074;2022-12-10T10:00:20;96362.91;;;-1.20;100.00
74708;BME280;63360;50.104;8.074;2022-12-10T10:02:48;96366.53;;;-1.01;100.00
74708;BME280;63360;50.104;8.074;2022-12-10T10:05:21;96363.22;;;-1.07;100.00
74708;BME280;63360;50.104;8.074;2022-12-10T10:07:52;96357.34;;;-1.07;100.00
74708;BME280;63360;50.104;8.074;2022-12-10T10:12:54;96358.84;;;-1.11;100.00
74708;BME280;63360;50.104;8.074;2022-12-10T10:15:26;96362.41;;;-1.17;100.00
74708;BME280;63360;50.104;8.074;2022-12-10T10:17:57;96369.59;;;-1.04;100.00
74708;BME280;63360;50.104;8.074;2022-12-10T10:20:25;96359.41;;;-0.99;100.00
74708;BME280;63360;50.104;8.074;2022-12-10T10:22:53;96369.91;;;-0.91;100.00
74708;BME280;63360;50.104;8.074;2022-12-10T10:25:22;96375.75;;;-0.90;100.00
74708;BME280;63360;50.104;8.074;2022-12-10T10:27:48;96369.16;;;-0.76;100.00
74708;BME280;63360;50.104;8.074;2022-12-10T10:30:20;96376.34;;;-0.63;100.00
74708;BME280;63360;50.104;8.074;2022-12-10T10:32:53;96371.75;;;-0.56;100.00
74708;BME280;63360;50.104;8.074;2022-12-10T10:35:34;96363.06;;;-0.60;98.00
74708;BME280;63360;50.104;8.074;2022-12-10T10:38:14;96375.56;;;-0.58;100.00
74708;BME280;63360;50.104;8.074;2022-12-10T10:40:46;96385.53;;;-0.62;100.00
74708;BME280;63360;50.104;8.074;2022-12-10T10:43:40;96372.50;;;-0.66;99.48
74708;BME280;63360;50.104;8.074;2022-12-10T10:46:17;96380.16;;;-0.71;98.92
74708;BME280;63360;50.104;8.074;2022-12-10T10:48:47;96384.47;;;-0.76;100.00
74708;BME280;63360;50.104;8.074;2022-12-10T10:53:46;96387.28;;;-0.83;100.00
74708;BME280;63360;50.104;8.074;2022-12-10T10:56:22;96376.78;;;-0.86;100.00
74708;BME280;63360;50.104;8.074;2022-12-10T11:01:24;96372.97;;;-0.89;100.00
74708;BME280;63360;50.104;8.074;2022-12-10T11:03:57;96364.84;;;-0.66;99.65
74708;BME280;63360;50.104;8.074;2022-12-10T11:06:25;96377.59;;;-0.66;98.54
74708;BME280;63360;50.104;8.074;2022-12-10T11:08:56;96370.91;;;-0.87;100.00
74708;BME280;63360;50.104;8.074;2022-12-10T11:11:41;96379.88;;;-0.79;100.00
74708;BME280;63360;50.104;8.074;2022-12-10T11:14:30;96369.66;;;-0.84;100.00
74708;BME280;63360;50.104;8.074;2022-12-10T11:23:10;96362.50;;;-0.87;96.85
74708;BME280;63360;50.104;8.074;2022-12-10T11:25:57;96373.44;;;-0.97;98.56
74708;BME280;63360;50.104;8.074;2022-12-10T11:28:44;96367.09;;;-0.89;98.50
74708;BME280;63360;50.104;8.074;2022-12-10T11:31:39;96379.34;;;-0.91;100.00
74708;BME280;63360;50.104;8.074;2022-12-10T11:42:03;96386.72;;;-0.95;100.00
74708;BME280;63360;50.104;8.074;2022-12-10T11:50:03;96381.22;;;-0.62;98.94
74708;BME280;63360;50.104;8.074;2022-12-10T11:55:32;96372.72;;;-0.82;98.23
74708;BME280;63360;50.104;8.074;2022-12-10T11:58:12;96376.03;;;-0.82;98.68
74708;BME280;63360;50.104;8.074;2022-12-10T12:09:25;96379.25;;;-1.06;98.77
74708;BME280;63360;50.104;8.074;2022-12-10T12:15:04;96381.06;;;-1.12;99.37
74708;BME280;63360;50.104;8.074;2022-12-10T12:17:44;96395.13;;;-0.99;98.06
74708;BME280;63360;50.104;8.074;2022-12-10T12:23:18;96398.22;;;-0.87;97.36
74708;BME280;63360;50.104;8.074;2022-12-10T12:25:48;96393.63;;;-0.90;98.25
74708;BME280;63360;50.104;8.074;2022-12-10T12:28:31;96402.03;;;-0.90;97.48
74708;BME280;63360;50.104;8.074;2022-12-10T12:31:06;96395.44;;;-0.86;97.13
74708;BME280;63360;50.104;8.074;2022-12-10T12:33:49;96396.22;;;-0.80;97.99
74708;BME280;63360;50.104;8.074;2022-12-10T12:36:19;96394.69;;;-0.76;96.71
74708;BME280;63360;50.104;8.074;2022-12-10T12:38:58;96391.06;;;-0.90;97.26
74708;BME280;63360;50.104;8.074;2022-12-10T12:41:30;96401.31;;;-0.80;96.85
74708;BME280;63360;50.104;8.074;2022-12-10T12:44:14;96389.56;;;-0.86;97.62
74708;BME280;63360;50.104;8.074;2022-12-10T12:46:44;96395.44;;;-0.91;97.50
74708;BME280;63360;50.104;8.074;2022-12-10T12:49:32;96409.22;;;-0.87;97.65
74708;BME280;63360;50.104;8.074;2022-12-10T12:54:50;96388.75;;;-0.97;98.18
74708;BME280;63360;50.104;8.074;2022-12-10T12:57:41;96408.97;;;-0.85;97.09
74708;BME280;63360;50.104;8.074;2022-12-10T13:00:17;96404.34;;;-0.93;97.18
74708;BME280;63360;50.104;8.074;2022-12-10T13:05:35;96406.19;;;-0.74;97.92
74708;BME280;63360;50.104;8.074;2022-12-10T13:13:36;96406.44;;;-0.75;95.41
74708;BME280;63360;50.104;8.074;2022-12-10T13:22:06;96423.22;;;-0.94;98.57
74708;BME280;63360;50.104;8.074;2022-12-10T13:43:19;96428.28;;;-1.04;98.40
74708;BME280;63360;50.104;8.074;2022-12-10T13:46:22;96434.88;;;-1.13;100.00
74708;BME280;63360;50.104;8.074;2022-12-10T13:48:51;96457.38;;;-1.05;100.00
74708;BME280;63360;50.104;8.074;2022-12-10T13:57:51;96461.00;;;-0.96;99.38
74708;BME280;63360;50.104;8.074;2022-12-10T14:00:22;96453.56;;;-0.98;98.77
74708;BME280;63360;50.104;8.074;2022-12-10T14:03:03;96464.56;;;-0.97;99.18
74708;BME280;63360;50.104;8.074;2022-12-10T14:08:17;96463.97;;;-1.14;96.35
74708;BME280;63360;50.104;8.074;2022-12-10T14:10:46;96456.00;;;-1.28;96.88
74708;BME280;63360;50.104;8.074;2022-12-10T14:13:16;96458.28;;;-1.27;98.13
74708;BME280;63360;50.104;8.074;2022-12-10T14:15:53;96472.59;;;-1.26;98.66
74708;BME280;63360;50.104;8.074;2022-12-10T14:18:22;96461.66;;;-1.16;97.73
74708;BME280;63360;50.104;8.074;2022-12-10T14:20:52;96462.06;;;-1.34;97.54
74708;BME280;63360;50.104;8.074;2022-12-10T14:23:30;96461.31;;;-1.30;99.35
74708;BME280;63360;50.104;8.074;2022-12-10T14:26:11;96480.97;;;-1.25;99.34
74708;BME280;63360;50.104;8.074;2022-12-10T14:28:41;96478.66;;;-1.32;99.26
74708;BME280;63360;50.104;8.074;2022-12-10T14:31:14;96472.22;;;-1.44;98.29
74708;BME280;63360;50.104;8.074;2022-12-10T14:33:44;96473.22;;;-1.45;100.00
74708;BME280;63360;50.104;8.074;2022-12-10T14:36:22;96485.50;;;-1.37;100.00
74708;BME280;63360;50.104;8.074;2022-12-10T14:38:51;96467.59;;;-1.47;100.00
74708;BME280;63360;50.104;8.074;2022-12-10T14:41:20;96483.72;;;-1.37;100.00
74708;BME280;63360;50.104;8.074;2022-12-10T14:43:47;96481.66;;;-1.40;97.37
74708;BME280;63360;50.104;8.074;2022-12-10T14:46:20;96480.03;;;-1.56;97.86
74708;BME280;63360;50.104;8.074;2022-12-10T14:48:52;96482.59;;;-1.51;99.27
74708;BME280;63360;50.104;8.074;2022-12-10T14:51:23;96490.59;;;-1.37;100.00
74708;BME280;63360;50.104;8.074;2022-12-10T14:53:54;96498.00;;;-1.36;98.45
74708;BME280;63360;50.104;8.074;2022-12-10T14:56:27;96500.97;;;-1.49;99.59
74708;BME280;63360;50.104;8.074;2022-12-10T14:59:06;96499.47;;;-1.50;99.52
74708;BME280;63360;50.104;8.074;2022-12-10T15:01:39;96491.28;;;-1.52;98.94
74708;BME280;63360;50.104;8.074;2022-12-10T15:04:12;96498.66;;;-1.55;98.51
74708;BME280;63360;50.104;8.074;2022-12-10T15:06:39;96494.88;;;-1.79;98.67